sensor_id;sensor_type;location;lat;lon;timestamp;pressure;altitude;pressure_sealevel;temperature;humidity
70133;BME280;57495;49.922;7.966;2023-01-25T00:00:21;101866.50;;;1.98;97.53
70133;BME280;57495;49.922;7.966;2023-01-25T00:02:23;101865.38;;;2.06;97.34
70133;BME280;57495;49.922;7.966;2023-01-25T00:04:24;101857.47;;;2.06;97.18
70133;BME280;57495;49.922;7.966;2023-01-25T00:06:27;101860.28;;;2.00;97.28
70133;BME280;57495;49.922;7.966;2023-01-25T00:08:28;101858.31;;;2.07;97.37
70133;BME280;57495;49.922;7.966;2023-01-25T00:10:31;101854.91;;;2.03;97.34
70133;BME280;57495;49.922;7.966;2023-01-25T00:12:33;101854.00;;;2.04;97.13
70133;BME280;57495;49.922;7.966;2023-01-25T00:14:34;101857.28;;;2.12;96.86
70133;BME280;57495;49.922;7.966;2023-01-25T00:16:36;101852.06;;;2.11;97.01
70133;BME280;57495;49.922;7.966;2023-01-25T00:18:37;101852.16;;;2.08;97.14
70133;BME280;57495;49.922;7.966;2023-01-25T00:20:39;101849.50;;;2.08;97.37
70133;BME280;57495;49.922;7.966;2023-01-25T00:22:42;101850.59;;;2.01;97.49
70133;BME280;57495;49.922;7.966;2023-01-25T00:24:43;101847.00;;;2.03;97.18
70133;BME280;57495;49.922;7.966;2023-01-25T00:26:44;101849.63;;;2.03;96.81
70133;BME280;57495;49.922;7.966;2023-01-25T00:28:48;101849.56;;;2.06;96.42
70133;BME280;57495;49.922;7.966;2023-01-25T00:30:49;101846.88;;;2.08;96.58
70133;BME280;57495;49.922;7.966;2023-01-25T00:32:53;101848.66;;;2.07;96.68
70133;BME280;57495;49.922;7.966;2023-01-25T00:34:58;101838.22;;;2.03;96.69
70133;BME280;57495;49.922;7.966;2023-01-25T00:37:01;101840.06;;;1.99;97.00
70133;BME280;57495;49.922;7.966;2023-01-25T00:39:11;101839.19;;;2.00;96.84
70133;BME280;57495;49.922;7.966;2023-01-25T00:41:13;101833.91;;;2.00;96.54
70133;BME280;57495;49.922;7.966;2023-01-25T00:43:15;101840.00;;;2.02;96.63
70133;BME280;57495;49.922;7.966;2023-01-25T00:45:16;101834.69;;;2.04;96.63
70133;BME280;57495;49.922;7.966;2023-01-25T00:47:18;101827.63;;;2.04;96.90
70133;BME280;57495;49.922;7.966;2023-01-25T00:49:21;101830.22;;;2.06;97.06
70133;BME280;57495;49.922;7.966;2023-01-25T00:51:23;101825.72;;;2.09;97.15
70133;BME280;57495;49.922;7.966;2023-01-25T00:53:25;101814.28;;;2.09;97.43
70133;BME280;57495;49.922;7.966;2023-01-25T00:55:27;101820.47;;;2.09;97.27
70133;BME280;57495;49.922;7.966;2023-01-25T00:57:29;101824.03;;;2.07;97.55
70133;BME280;57495;49.922;7.966;2023-01-25T00:59:30;101823.28;;;2.02;97.59
70133;BME280;57495;49.922;7.966;2023-01-25T01:01:33;101818.06;;;2.00;97.57
70133;BME280;57495;49.922;7.966;2023-01-25T01:03:34;101823.16;;;2.06;97.78
70133;BME280;57495;49.922;7.966;2023-01-25T01:05:36;101824.91;;;2.07;97.71
70133;BME280;57495;49.922;7.966;2023-01-25T01:07:37;101821.34;;;2.08;97.75
70133;BME280;57495;49.922;7.966;2023-01-25T01:09:39;101826.56;;;2.11;97.34
70133;BME280;57495;49.922;7.966;2023-01-25T01:11:42;101818.66;;;2.10;96.94
70133;BME280;57495;49.922;7.966;2023-01-25T01:13:44;101820.34;;;2.12;97.04
70133;BME280;57495;49.922;7.966;2023-01-25T01:15:45;101816.88;;;2.10;97.14
70133;BME280;57495;49.922;7.966;2023-01-25T01:17:47;101820.34;;;2.12;97.08
70133;BME280;57495;49.922;7.966;2023-01-25T01:19:48;101823.88;;;2.13;97.06
70133;BME280;57495;49.922;7.966;2023-01-25T01:21:49;101820.47;;;2.09;97.29
70133;BME280;57495;49.922;7.966;2023-01-25T01:23:52;101829.25;;;2.08;97.39
70133;BME280;57495;49.922;7.966;2023-01-25T01:25:54;101821.50;;;2.04;97.39
70133;BME280;57495;49.922;7.966;2023-01-25T01:27:57;101818.06;;;2.00;97.13
70133;BME280;57495;49.922;7.966;2023-01-25T01:29:58;101822.53;;;1.98;97.26
70133;BME280;57495;49.922;7.966;2023-01-25T01:31:59;101816.50;;;1.93;97.69
70133;BME280;57495;49.922;7.966;2023-01-25T01:34:01;101817.41;;;1.92;97.97
70133;BME280;57495;49.922;7.966;2023-01-25T01:36:06;101821.69;;;1.96;97.32
70133;BME280;57495;49.922;7.966;2023-01-25T01:38:07;101819.81;;;2.00;97.45
70133;BME280;57495;49.922;7.966;2023-01-25T01:40:13;101817.25;;;1.98;97.64
70133;BME280;57495;49.922;7.966;2023-01-25T01:42:14;101810.16;;;2.00;97.72
70133;BME280;57495;49.922;7.966;2023-01-25T01:44:19;101811.06;;;1.99;97.34
70133;BME280;57495;49.922;7.966;2023-01-25T01:46:25;101812.06;;;1.95;97.53
70133;BME280;57495;49.922;7.966;2023-01-25T01:48:32;101820.09;;;1.90;97.48
70133;BME280;57495;49.922;7.966;2023-01-25T01:50:34;101812.06;;;1.95;97.35
70133;BME280;57495;49.922;7.966;2023-01-25T01:52:36;101812.88;;;1.97;97.45
70133;BME280;57495;49.922;7.966;2023-01-25T01:54:40;101809.41;;;1.95;97.85
70133;BME280;57495;49.922;7.966;2023-01-25T01:56:50;101809.50;;;1.92;97.64
70133;BME280;57495;49.922;7.966;2023-01-25T01:58:55;101799.84;;;1.92;97.71
70133;BME280;57495;49.922;7.966;2023-01-25T02:00:59;101798.19;;;1.87;97.77
70133;BME280;57495;49.922;7.966;2023-01-25T02:03:01;101794.66;;;1.88;97.84
70133;BME280;57495;49.922;7.966;2023-01-25T02:05:06;101803.47;;;1.87;98.11
70133;BME280;57495;49.922;7.966;2023-01-25T02:07:15;101795.72;;;1.82;98.13
70133;BME280;57495;49.922;7.966;2023-01-25T02:09:20;101792.22;;;1.82;98.13
70133;BME280;57495;49.922;7.966;2023-01-25T02:11:23;101803.53;;;1.85;97.99
70133;BME280;57495;49.922;7.966;2023-01-25T02:13:27;101792.03;;;1.88;97.88
70133;BME280;57495;49.922;7.966;2023-01-25T02:15:34;101794.66;;;1.88;98.18
70133;BME280;57495;49.922;7.966;2023-01-25T02:17:40;101794.66;;;1.88;98.03
70133;BME280;57495;49.922;7.966;2023-01-25T02:19:45;101794.50;;;1.94;97.63
70133;BME280;57495;49.922;7.966;2023-01-25T02:21:51;101792.88;;;1.88;97.90
70133;BME280;57495;49.922;7.966;2023-01-25T02:23:59;101793.66;;;1.92;97.61
70133;BME280;57495;49.922;7.966;2023-01-25T02:26:04;101795.41;;;1.93;97.72
70133;BME280;57495;49.922;7.966;2023-01-25T02:28:10;101792.75;;;1.95;97.74
70133;BME280;57495;49.922;7.966;2023-01-25T02:30:14;101795.25;;;1.98;97.62
70133;BME280;57495;49.922;7.966;2023-01-25T02:32:16;101792.59;;;1.99;97.34
70133;BME280;57495;49.922;7.966;2023-01-25T02:34:17;101795.22;;;1.99;97.41
70133;BME280;57495;49.922;7.966;2023-01-25T02:36:22;101794.44;;;1.96;97.53
70133;BME280;57495;49.922;7.966;2023-01-25T02:38:24;101790.72;;;2.03;96.95
70133;BME280;57495;49.922;7.966;2023-01-25T02:40:26;101788.91;;;2.05;97.44
70133;BME280;57495;49.922;7.966;2023-01-25T02:42:30;101786.34;;;2.02;97.50
70133;BME280;57495;49.922;7.966;2023-01-25T02:44:32;101789.09;;;1.99;97.69
70133;BME280;57495;49.922;7.966;2023-01-25T02:46:35;101789.00;;;2.02;97.62
70133;BME280;57495;49.922;7.966;2023-01-25T02:48:37;101787.38;;;1.96;97.94
70133;BME280;57495;49.922;7.966;2023-01-25T02:50:38;101788.50;;;1.89;97.90
70133;BME280;57495;49.922;7.966;2023-01-25T02:52:40;101786.63;;;1.92;97.92
70133;BME280;57495;49.922;7.966;2023-01-25T02:54:41;101784.84;;;1.93;97.82
70133;BME280;57495;49.922;7.966;2023-01-25T02:56:43;101788.50;;;1.89;97.94
70133;BME280;57495;49.922;7.966;2023-01-25T02:58:46;101785.19;;;1.81;98.28
70133;BME280;57495;49.922;7.966;2023-01-25T03:00:48;101792.34;;;1.76;98.15
70133;BME280;57495;49.922;7.966;2023-01-25T03:02:49;101785.41;;;1.73;98.81
70133;BME280;57495;49.922;7.966;2023-01-25T03:04:50;101780.84;;;1.80;98.57
70133;BME280;57495;49.922;7.966;2023-01-25T03:06:52;101779.13;;;1.77;98.51
70133;BME280;57495;49.922;7.966;2023-01-25T03:08:53;101776.66;;;1.72;98.72
70133;BME280;57495;49.922;7.966;2023-01-25T03:10:55;101780.97;;;1.75;98.51
70133;BME280;57495;49.922;7.966;2023-01-25T03:12:57;101778.47;;;1.70;98.68
70133;BME280;57495;49.922;7.966;2023-01-25T03:15:00;101780.09;;;1.74;98.57
70133;BME280;57495;49.922;7.966;2023-01-25T03:17:02;101770.16;;;1.84;98.44
70133;BME280;57495;49.922;7.966;2023-01-25T03:19:03;101772.75;;;1.86;98.50
70133;BME280;57495;49.922;7.966;2023-01-25T03:21:06;101780.69;;;1.84;98.11
70133;BME280;57495;49.922;7.966;2023-01-25T03:23:08;101780.78;;;1.81;98.42
70133;BME280;57495;49.922;7.966;2023-01-25T03:25:09;101780.00;;;1.78;98.61
70133;BME280;57495;49.922;7.966;2023-01-25T03:27:11;101778.22;;;1.80;98.44
70133;BME280;57495;49.922;7.966;2023-01-25T03:29:13;101781.66;;;1.82;98.56
70133;BME280;57495;49.922;7.966;2023-01-25T03:31:16;101776.38;;;1.82;98.92
70133;BME280;57495;49.922;7.966;2023-01-25T03:33:18;101764.28;;;1.74;99.19
70133;BME280;57495;49.922;7.966;2023-01-25T03:35:19;101770.13;;;1.86;98.85
70133;BME280;57495;49.922;7.966;2023-01-25T03:37:20;101761.47;;;1.81;99.00
70133;BME280;57495;49.922;7.966;2023-01-25T03:39:22;101762.25;;;1.84;99.02
70133;BME280;57495;49.922;7.966;2023-01-25T03:41:23;101752.09;;;1.70;99.53
70133;BME280;57495;49.922;7.966;2023-01-25T03:43:25;101757.16;;;1.78;99.58
70133;BME280;57495;49.922;7.966;2023-01-25T03:45:26;101752.53;;;1.85;99.46
70133;BME280;57495;49.922;7.966;2023-01-25T03:47:29;101754.66;;;1.72;99.55
70133;BME280;57495;49.922;7.966;2023-01-25T03:49:30;101750.91;;;1.81;99.77
70133;BME280;57495;49.922;7.966;2023-01-25T03:51:32;101749.25;;;1.78;99.63
70133;BME280;57495;49.922;7.966;2023-01-25T03:53:34;101750.94;;;1.79;99.67
70133;BME280;57495;49.922;7.966;2023-01-25T03:55:35;101757.00;;;1.83;99.45
70133;BME280;57495;49.922;7.966;2023-01-25T03:57:37;101749.97;;;1.83;99.50
70133;BME280;57495;49.922;7.966;2023-01-25T03:59:38;101755.19;;;1.85;99.55
70133;BME280;57495;49.922;7.966;2023-01-25T04:01:40;101755.09;;;1.88;99.40
70133;BME280;57495;49.922;7.966;2023-01-25T04:03:42;101747.91;;;1.63;100.00
70133;BME280;57495;49.922;7.966;2023-01-25T04:05:44;101746.91;;;1.67;100.00
70133;BME280;57495;49.922;7.966;2023-01-25T04:07:45;101752.16;;;1.67;100.00
70133;BME280;57495;49.922;7.966;2023-01-25T04:09:47;101755.59;;;1.71;100.00
70133;BME280;57495;49.922;7.966;2023-01-25T04:11:49;101750.41;;;1.66;99.93
70133;BME280;57495;49.922;7.966;2023-01-25T04:13:51;101748.84;;;1.59;100.00
70133;BME280;57495;49.922;7.966;2023-01-25T04:15:53;101744.47;;;1.60;100.00
70133;BME280;57495;49.922;7.966;2023-01-25T04:17:54;101745.41;;;1.57;100.00
70133;BME280;57495;49.922;7.966;2023-01-25T04:19:57;101747.16;;;1.58;100.00
70133;BME280;57495;49.922;7.966;2023-01-25T04:21:59;101745.34;;;1.60;100.00
70133;BME280;57495;49.922;7.966;2023-01-25T04:24:01;101746.34;;;1.56;100.00
70133;BME280;57495;49.922;7.966;2023-01-25T04:26:05;101740.06;;;1.60;100.00
70133;BME280;57495;49.922;7.966;2023-01-25T04:28:06;101738.41;;;1.56;100.00
70133;BME280;57495;49.922;7.966;2023-01-25T04:30:08;101744.59;;;1.55;100.00
70133;BME280;57495;49.922;7.966;2023-01-25T04:32:10;101740.13;;;1.57;100.00
70133;BME280;57495;49.922;7.966;2023-01-25T04:34:11;101740.06;;;1.60;100.00
70133;BME280;57495;49.922;7.966;2023-01-25T04:36:14;101741.06;;;1.56;100.00
70133;BME280;57495;49.922;7.966;2023-01-25T04:38:16;101733.16;;;1.56;100.00
70133;BME280;57495;49.922;7.966;2023-01-25T04:40:17;101735.66;;;1.61;100.00
70133;BME280;57495;49.922;7.966;2023-01-25T04:42:19;101729.50;;;1.60;100.00
70133;BME280;57495;49.922;7.966;2023-01-25T04:44:20;101725.31;;;1.53;100.00
70133;BME280;57495;49.922;7.966;2023-01-25T04:46:22;101726.13;;;1.55;100.00
70133;BME280;57495;49.922;7.966;2023-01-25T04:48:24;101723.28;;;1.63;100.00
70133;BME280;57495;49.922;7.966;2023-01-25T04:50:26;101728.69;;;1.58;100.00
70133;BME280;57495;49.922;7.966;2023-01-25T04:52:28;101730.47;;;1.58;100.00
70133;BME280;57495;49.922;7.966;2023-01-25T04:54:30;101721.50;;;1.65;100.00
70133;BME280;57495;49.922;7.966;2023-01-25T04:56:31;101728.50;;;1.64;100.00
70133;BME280;57495;49.922;7.966;2023-01-25T04:58:34;101720.72;;;1.61;100.00
70133;BME280;57495;49.922;7.966;2023-01-25T05:00:35;101720.59;;;1.64;100.00
70133;BME280;57495;49.922;7.966;2023-01-25T05:02:37;101713.59;;;1.65;100.00
70133;BME280;57495;49.922;7.966;2023-01-25T05:04:38;101716.38;;;1.59;100.00
70133;BME280;57495;49.922;7.966;2023-01-25T05:06:40;101715.47;;;1.60;100.00
70133;BME280;57495;49.922;7.966;2023-01-25T05:08:42;101715.50;;;1.58;100.00
70133;BME280;57495;49.922;7.966;2023-01-25T05:10:44;101717.22;;;1.59;100.00
70133;BME280;57495;49.922;7.966;2023-01-25T05:12:45;101715.69;;;1.52;100.00
70133;BME280;57495;49.922;7.966;2023-01-25T05:14:47;101706.63;;;1.61;100.00
70133;BME280;57495;49.922;7.966;2023-01-25T05:16:48;101713.50;;;1.66;100.00
70133;BME280;57495;49.922;7.966;2023-01-25T05:18:50;101704.63;;;1.70;100.00
70133;BME280;57495;49.922;7.966;2023-01-25T05:20:53;101702.00;;;1.70;100.00
70133;BME280;57495;49.922;7.966;2023-01-25T05:22:55;101698.41;;;1.73;100.00
70133;BME280;57495;49.922;7.966;2023-01-25T05:24:57;101695.59;;;1.78;100.00
70133;BME280;57495;49.922;7.966;2023-01-25T05:27:01;101693.69;;;1.83;100.00
70133;BME280;57495;49.922;7.966;2023-01-25T05:29:07;101695.69;;;1.76;100.00
70133;BME280;57495;49.922;7.966;2023-01-25T05:31:09;101693.03;;;1.76;100.00
70133;BME280;57495;49.922;7.966;2023-01-25T05:33:10;101693.81;;;1.80;100.00
70133;BME280;57495;49.922;7.966;2023-01-25T05:35:12;101697.28;;;1.82;99.74
70133;BME280;57495;49.922;7.966;2023-01-25T05:37:15;101697.16;;;1.85;99.53
70133;BME280;57495;49.922;7.966;2023-01-25T05:39:16;101688.47;;;1.81;99.55
70133;BME280;57495;49.922;7.966;2023-01-25T05:41:19;101691.88;;;1.85;99.57
70133;BME280;57495;49.922;7.966;2023-01-25T05:43:20;101692.69;;;1.87;99.55
70133;BME280;57495;49.922;7.966;2023-01-25T05:45:23;101684.78;;;1.87;99.33
70133;BME280;57495;49.922;7.966;2023-01-25T05:47:24;101687.34;;;1.90;99.42
70133;BME280;57495;49.922;7.966;2023-01-25T05:49:26;101680.06;;;1.68;100.00
70133;BME280;57495;49.922;7.966;2023-01-25T05:51:27;101683.69;;;1.64;100.00
70133;BME280;57495;49.922;7.966;2023-01-25T05:53:28;101681.09;;;1.63;100.00
70133;BME280;57495;49.922;7.966;2023-01-25T05:55:30;101682.84;;;1.64;100.00
70133;BME280;57495;49.922;7.966;2023-01-25T05:57:33;101677.53;;;1.65;100.00
70133;BME280;57495;49.922;7.966;2023-01-25T05:59:34;101679.38;;;1.62;100.00
70133;BME280;57495;49.922;7.966;2023-01-25T06:01:36;101675.03;;;1.59;100.00
70133;BME280;57495;49.922;7.966;2023-01-25T06:03:37;101678.09;;;1.45;100.00
70133;BME280;57495;49.922;7.966;2023-01-25T06:05:39;101676.88;;;1.57;100.00
70133;BME280;57495;49.922;7.966;2023-01-25T06:07:40;101682.13;;;1.57;100.00
70133;BME280;57495;49.922;7.966;2023-01-25T06:09:41;101673.38;;;1.57;100.00
70133;BME280;57495;49.922;7.966;2023-01-25T06:11:43;101670.88;;;1.52;100.00
70133;BME280;57495;49.922;7.966;2023-01-25T06:13:48;101672.56;;;1.54;100.00
70133;BME280;57495;49.922;7.966;2023-01-25T06:15:52;101679.84;;;1.46;100.00
70133;BME280;57495;49.922;7.966;2023-01-25T06:17:54;101671.69;;;1.54;100.00
70133;BME280;57495;49.922;7.966;2023-01-25T06:19:56;101671.50;;;1.60;100.00
70133;BME280;57495;49.922;7.966;2023-01-25T06:21:57;101672.41;;;1.59;100.00
70133;BME280;57495;49.922;7.966;2023-01-25T06:23:58;101667.28;;;1.54;100.00
70133;BME280;57495;49.922;7.966;2023-01-25T06:26:02;101666.38;;;1.56;100.00
70133;BME280;57495;49.922;7.966;2023-01-25T06:28:04;101666.47;;;1.52;100.00
70133;BME280;57495;49.922;7.966;2023-01-25T06:30:08;101668.06;;;1.58;100.00
70133;BME280;57495;49.922;7.966;2023-01-25T06:32:09;101668.94;;;1.57;100.00
70133;BME280;57495;49.922;7.966;2023-01-25T06:34:11;101673.34;;;1.58;100.00
70133;BME280;57495;49.922;7.966;2023-01-25T06:36:14;101670.69;;;1.58;100.00
70133;BME280;57495;49.922;7.966;2023-01-25T06:38:16;101676.09;;;1.53;100.00
70133;BME280;57495;49.922;7.966;2023-01-25T06:40:17;101676.34;;;1.44;100.00
70133;BME280;57495;49.922;7.966;2023-01-25T06:42:19;101672.66;;;1.50;100.00
70133;BME280;57495;49.922;7.966;2023-01-25T06:44:20;101670.81;;;1.53;100.00
70133;BME280;57495;49.922;7.966;2023-01-25T06:46:23;101675.13;;;1.58;100.00
70133;BME280;57495;49.922;7.966;2023-01-25T06:48:25;101675.97;;;1.58;100.00
70133;BME280;57495;49.922;7.966;2023-01-25T06:50:26;101673.34;;;1.58;100.00
70133;BME280;57495;49.922;7.966;2023-01-25T06:52:27;101666.59;;;1.48;100.00
70133;BME280;57495;49.922;7.966;2023-01-25T06:54:29;101660.41;;;1.49;100.00
70133;BME280;57495;49.922;7.966;2023-01-25T06:56:31;101669.22;;;1.48;100.00
70133;BME280;57495;49.922;7.966;2023-01-25T06:58:32;101670.28;;;1.41;100.00
70133;BME280;57495;49.922;7.966;2023-01-25T07:00:34;101664.09;;;1.43;100.00
70133;BME280;57495;49.922;7.966;2023-01-25T07:02:37;101668.25;;;1.52;100.00
70133;BME280;57495;49.922;7.966;2023-01-25T07:04:38;101674.38;;;1.52;100.00
70133;BME280;57495;49.922;7.966;2023-01-25T07:06:39;101672.59;;;1.53;100.00
70133;BME280;57495;49.922;7.966;2023-01-25T07:08:41;101670.91;;;1.50;100.00
70133;BME280;57495;49.922;7.966;2023-01-25T07:10:42;101675.38;;;1.48;100.00
70133;BME280;57495;49.922;7.966;2023-01-25T07:12:43;101675.22;;;1.53;100.00
70133;BME280;57495;49.922;7.966;2023-01-25T07:14:45;101676.97;;;1.54;100.00
70133;BME280;57495;49.922;7.966;2023-01-25T07:16:47;101675.03;;;1.59;100.00
70133;BME280;57495;49.922;7.966;2023-01-25T07:18:50;101672.41;;;1.59;100.00
70133;BME280;57495;49.922;7.966;2023-01-25T07:20:51;101668.06;;;1.58;100.00
70133;BME280;57495;49.922;7.966;2023-01-25T07:22:53;101675.28;;;1.51;100.00
70133;BME280;57495;49.922;7.966;2023-01-25T07:24:54;101669.88;;;1.56;100.00
70133;BME280;57495;49.922;7.966;2023-01-25T07:26:58;101670.75;;;1.57;100.00
70133;BME280;57495;49.922;7.966;2023-01-25T07:28:59;101664.56;;;1.58;100.00
70133;BME280;57495;49.922;7.966;2023-01-25T07:31:04;101671.44;;;1.63;100.00
70133;BME280;57495;49.922;7.966;2023-01-25T07:33:06;101674.38;;;1.52;100.00
70133;BME280;57495;49.922;7.966;2023-01-25T07:35:09;101671.78;;;1.51;100.00
70133;BME280;57495;49.922;7.966;2023-01-25T07:37:10;101666.44;;;1.54;100.00
70133;BME280;57495;49.922;7.966;2023-01-25T07:39:12;101673.34;;;1.58;100.00
70133;BME280;57495;49.922;7.966;2023-01-25T07:41:13;101672.38;;;1.61;100.00
70133;BME280;57495;49.922;7.966;2023-01-25T07:43:15;101673.41;;;1.55;100.00
70133;BME280;57495;49.922;7.966;2023-01-25T07:45:17;101668.13;;;1.55;100.00
70133;BME280;57495;49.922;7.966;2023-01-25T07:47:18;101670.03;;;1.50;100.00
70133;BME280;57495;49.922;7.966;2023-01-25T07:49:19;101672.56;;;1.54;100.00
70133;BME280;57495;49.922;7.966;2023-01-25T07:51:22;101669.88;;;1.56;100.00
70133;BME280;57495;49.922;7.966;2023-01-25T07:53:25;101671.78;;;1.51;100.00
70133;BME280;57495;49.922;7.966;2023-01-25T07:55:27;101670.25;;;1.42;100.00
70133;BME280;57495;49.922;7.966;2023-01-25T07:57:28;101672.00;;;1.43;100.00
70133;BME280;57495;49.922;7.966;2023-01-25T07:59:29;101668.38;;;1.47;100.00
70133;BME280;57495;49.922;7.966;2023-01-25T08:01:31;101664.88;;;1.47;100.00
70133;BME280;57495;49.922;7.966;2023-01-25T08:03:33;101662.97;;;1.52;100.00
70133;BME280;57495;49.922;7.966;2023-01-25T08:05:34;101663.78;;;1.54;100.00
70133;BME280;57495;49.922;7.966;2023-01-25T08:07:37;101668.94;;;1.57;100.00
70133;BME280;57495;49.922;7.966;2023-01-25T08:09:39;101668.94;;;1.57;100.00
70133;BME280;57495;49.922;7.966;2023-01-25T08:11:41;101672.50;;;1.56;100.00
70133;BME280;57495;49.922;7.966;2023-01-25T08:13:43;101671.59;;;1.57;100.00
70133;BME280;57495;49.922;7.966;2023-01-25T08:15:52;101673.25;;;1.61;100.00
70133;BME280;57495;49.922;7.966;2023-01-25T08:17:53;101674.16;;;1.60;100.00
70133;BME280;57495;49.922;7.966;2023-01-25T08:19:54;101670.63;;;1.61;100.00
70133;BME280;57495;49.922;7.966;2023-01-25T08:21:56;101677.91;;;1.51;100.00
70133;BME280;57495;49.922;7.966;2023-01-25T08:24:00;101677.50;;;1.35;100.00
70133;BME280;57495;49.922;7.966;2023-01-25T08:26:06;101664.94;;;1.44;100.00
70133;BME280;57495;49.922;7.966;2023-01-25T08:28:08;101674.56;;;1.46;100.00
70133;BME280;57495;49.922;7.966;2023-01-25T08:30:10;101667.50;;;1.47;100.00
70133;BME280;57495;49.922;7.966;2023-01-25T08:32:12;101663.25;;;1.43;100.00
70133;BME280;57495;49.922;7.966;2023-01-25T08:34:13;101672.00;;;1.43;100.00
70133;BME280;57495;49.922;7.966;2023-01-25T08:36:16;101668.50;;;1.43;100.00
70133;BME280;57495;49.922;7.966;2023-01-25T08:38:17;101663.56;;;1.30;100.00
70133;BME280;57495;49.922;7.966;2023-01-25T08:40:20;101660.38;;;1.19;100.00
70133;BME280;57495;49.922;7.966;2023-01-25T08:42:21;101661.75;;;1.32;100.00
70133;BME280;57495;49.922;7.966;2023-01-25T08:44:23;101658.22;;;1.33;100.00
70133;BME280;57495;49.922;7.966;2023-01-25T08:46:29;101659.13;;;1.32;100.00
70133;BME280;57495;49.922;7.966;2023-01-25T08:48:31;101657.25;;;1.36;100.00
70133;BME280;57495;49.922;7.966;2023-01-25T08:50:32;101658.13;;;1.37;100.00
70133;BME280;57495;49.922;7.966;2023-01-25T08:52:34;101646.66;;;1.39;100.00
70133;BME280;57495;49.922;7.966;2023-01-25T08:54:35;101646.66;;;1.39;100.00
70133;BME280;57495;49.922;7.966;2023-01-25T08:56:38;101650.16;;;1.38;100.00
70133;BME280;57495;49.922;7.966;2023-01-25T08:58:41;101645.75;;;1.39;100.00
70133;BME280;57495;49.922;7.966;2023-01-25T09:00:43;101646.66;;;1.39;100.00
70133;BME280;57495;49.922;7.966;2023-01-25T09:02:45;101639.56;;;1.41;100.00
70133;BME280;57495;49.922;7.966;2023-01-25T09:04:46;101640.44;;;1.40;100.00
70133;BME280;57495;49.922;7.966;2023-01-25T09:06:47;101649.94;;;1.46;100.00
70133;BME280;57495;49.922;7.966;2023-01-25T09:08:49;101650.75;;;1.48;100.00
70133;BME280;57495;49.922;7.966;2023-01-25T09:10:50;101641.97;;;1.49;100.00
70133;BME280;57495;49.922;7.966;2023-01-25T09:12:53;101643.59;;;1.53;100.00
70133;BME280;57495;49.922;7.966;2023-01-25T09:14:54;101642.66;;;1.56;100.00
70133;BME280;57495;49.922;7.966;2023-01-25T09:16:56;101644.34;;;1.58;100.00
70133;BME280;57495;49.922;7.966;2023-01-25T09:18:59;101638.31;;;1.53;100.00
70133;BME280;57495;49.922;7.966;2023-01-25T09:21:06;101640.06;;;1.54;100.00
70133;BME280;57495;49.922;7.966;2023-01-25T09:23:08;101642.75;;;1.52;100.00
70133;BME280;57495;49.922;7.966;2023-01-25T09:25:09;101641.22;;;1.44;100.00
70133;BME280;57495;49.922;7.966;2023-01-25T09:27:10;101640.47;;;1.39;100.00
70133;BME280;57495;49.922;7.966;2023-01-25T09:29:13;101642.75;;;1.21;100.00
70133;BME280;57495;49.922;7.966;2023-01-25T09:31:15;101641.09;;;1.17;100.00
70133;BME280;57495;49.922;7.966;2023-01-25T09:33:16;101644.66;;;1.14;100.00
70133;BME280;57495;49.922;7.966;2023-01-25T09:35:18;101632.13;;;1.24;100.00
70133;BME280;57495;49.922;7.966;2023-01-25T09:37:19;101640.22;;;1.16;100.00
70133;BME280;57495;49.922;7.966;2023-01-25T09:39:21;101642.56;;;1.27;100.00
70133;BME280;57495;49.922;7.966;2023-01-25T09:41:37;101625.00;;;1.28;100.00
70133;BME280;57495;49.922;7.966;2023-01-25T09:43:56;101630.13;;;1.32;100.00
70133;BME280;57495;49.922;7.966;2023-01-25T09:46:08;101632.38;;;1.46;100.00
70133;BME280;57495;49.922;7.966;2023-01-25T09:48:17;101627.78;;;1.53;100.00
70133;BME280;57495;49.922;7.966;2023-01-25T09:50:34;101623.47;;;1.50;100.00
70133;BME280;57495;49.922;7.966;2023-01-25T09:52:56;101626.84;;;1.56;100.00
70133;BME280;57495;49.922;7.966;2023-01-25T09:55:10;101630.38;;;1.54;100.00
70133;BME280;57495;49.922;7.966;2023-01-25T09:57:15;101623.28;;;1.57;100.00
70133;BME280;57495;49.922;7.966;2023-01-25T09:59:20;101616.97;;;1.62;100.00
70133;BME280;57495;49.922;7.966;2023-01-25T10:01:34;101621.09;;;1.71;100.00
70133;BME280;57495;49.922;7.966;2023-01-25T10:03:47;101623.88;;;1.66;100.00
70133;BME280;57495;49.922;7.966;2023-01-25T10:05:52;101621.38;;;1.62;100.00
70133;BME280;57495;49.922;7.966;2023-01-25T10:07:57;101616.09;;;1.62;100.00
70133;BME280;57495;49.922;7.966;2023-01-25T10:10:05;101617.22;;;1.53;100.00
70133;BME280;57495;49.922;7.966;2023-01-25T10:12:14;101614.38;;;1.61;100.00
70133;BME280;57495;49.922;7.966;2023-01-25T10:14:17;101606.34;;;1.65;100.00
70133;BME280;57495;49.922;7.966;2023-01-25T10:16:24;101613.44;;;1.63;100.00
70133;BME280;57495;49.922;7.966;2023-01-25T10:18:33;101608.25;;;1.60;100.00
70133;BME280;57495;49.922;7.966;2023-01-25T10:20:41;101611.69;;;1.62;100.00
70133;BME280;57495;49.922;7.966;2023-01-25T10:22:45;101610.06;;;1.58;100.00
70133;BME280;57495;49.922;7.966;2023-01-25T10:27:28;101606.34;;;1.65;100.00
70133;BME280;57495;49.922;7.966;2023-01-25T10:29:35;101604.50;;;1.67;100.00
70133;BME280;57495;49.922;7.966;2023-01-25T10:31:43;101601.91;;;1.66;100.00
70133;BME280;57495;49.922;7.966;2023-01-25T10:33:47;101594.94;;;1.65;100.00
70133;BME280;57495;49.922;7.966;2023-01-25T10:35:49;101596.88;;;1.58;100.00
70133;BME280;57495;49.922;7.966;2023-01-25T10:37:51;101592.44;;;1.60;100.00
70133;BME280;57495;49.922;7.966;2023-01-25T10:39:57;101588.31;;;1.80;100.00
70133;BME280;57495;49.922;7.966;2023-01-25T10:42:05;101583.34;;;1.70;100.00
70133;BME280;57495;49.922;7.966;2023-01-25T10:44:10;101581.50;;;1.72;100.00
70133;BME280;57495;49.922;7.966;2023-01-25T10:46:25;101575.13;;;1.80;100.00
70133;BME280;57495;49.922;7.966;2023-01-25T10:48:29;101577.19;;;1.70;100.00